sensor_id;sensor_type;location;lat;lon;timestamp;P1;durP1;ratioP1;P2;durP2;ratioP2
20861;SDS011;10591;52.532;13.348;2023-06-24T00:00:33;18.32;;;16.35;;
20861;SDS011;10591;52.532;13.348;2023-06-24T00:03:06;19.57;;;16.52;;
20861;SDS011;10591;52.532;13.348;2023-06-24T00:05:37;18.12;;;16.23;;
20861;SDS011;10591;52.532;13.348;2023-06-24T00:08:09;18.95;;;16.82;;
20861;SDS011;10591;52.532;13.348;2023-06-24T00:10:40;19.98;;;17.87;;
20861;SDS011;10591;52.532;13.348;2023-06-24T00:13:13;19.17;;;17.17;;
20861;SDS011;10591;52.532;13.348;2023-06-24T00:15:48;23.32;;;19.57;;
20861;SDS011;10591;52.532;13.348;2023-06-24T00:18:24;21.90;;;19.60;;
20861;SDS011;10591;52.532;13.348;2023-06-24T00:20:52;25.45;;;20.88;;
20861;SDS011;10591;52.532;13.348;2023-06-24T00:23:24;24.37;;;20.68;;
20861;SDS011;10591;52.532;13.348;2023-06-24T00:25:55;23.62;;;20.75;;
20861;SDS011;10591;52.532;13.348;2023-06-24T00:28:27;26.40;;;21.73;;
20861;SDS011;10591;52.532;13.348;2023-06-24T00:30:58;25.25;;;22.20;;
20861;SDS011;10591;52.532;13.348;2023-06-24T00:33:30;29.98;;;24.60;;
20861;SDS011;10591;52.532;13.348;2023-06-24T00:36:02;27.25;;;23.62;;
20861;SDS011;10591;52.532;13.348;2023-06-24T00:38:35;29.07;;;24.20;;
20861;SDS011;10591;52.532;13.348;2023-06-24T00:41:06;31.42;;;24.37;;
20861;SDS011;10591;52.532;13.348;2023-06-24T00:43:39;31.20;;;24.63;;
20861;SDS011;10591;52.532;13.348;2023-06-24T00:46:09;30.62;;;24.07;;
20861;SDS011;10591;52.532;13.348;2023-06-24T00:48:41;28.73;;;24.40;;
20861;SDS011;10591;52.532;13.348;2023-06-24T00:51:12;32.28;;;24.80;;
20861;SDS011;10591;52.532;13.348;2023-06-24T00:53:42;30.45;;;24.07;;
20861;SDS011;10591;52.532;13.348;2023-06-24T00:56:15;28.47;;;24.70;;
20861;SDS011;10591;52.532;13.348;2023-06-24T00:58:47;29.85;;;22.10;;
20861;SDS011;10591;52.532;13.348;2023-06-24T01:01:19;27.82;;;23.67;;
20861;SDS011;10591;52.532;13.348;2023-06-24T01:03:50;28.87;;;23.00;;
20861;SDS011;10591;52.532;13.348;2023-06-24T01:06:21;26.35;;;22.65;;
20861;SDS011;10591;52.532;13.348;2023-06-24T01:08:52;27.50;;;23.32;;
20861;SDS011;10591;52.532;13.348;2023-06-24T01:11:25;25.62;;;22.93;;
20861;SDS011;10591;52.532;13.348;2023-06-24T01:13:57;26.05;;;22.32;;
20861;SDS011;10591;52.532;13.348;2023-06-24T01:16:45;25.40;;;22.62;;
20861;SDS011;10591;52.532;13.348;2023-06-24T01:19:33;27.95;;;23.42;;
20861;SDS011;10591;52.532;13.348;2023-06-24T01:22:37;26.65;;;23.85;;
20861;SDS011;10591;52.532;13.348;2023-06-24T01:28:26;27.37;;;22.40;;
20861;SDS011;10591;52.532;13.348;2023-06-24T01:37:14;22.85;;;20.45;;
20861;SDS011;10591;52.532;13.348;2023-06-24T01:42:44;24.12;;;19.32;;
20861;SDS011;10591;52.532;13.348;2023-06-24T01:45:21;23.77;;;19.25;;
20861;SDS011;10591;52.532;13.348;2023-06-24T01:47:59;21.85;;;19.50;;
20861;SDS011;10591;52.532;13.348;2023-06-24T01:50:38;22.27;;;19.92;;
20861;SDS011;10591;52.532;13.348;2023-06-24T01:53:11;21.95;;;19.60;;
20861;SDS011;10591;52.532;13.348;2023-06-24T01:55:46;22.55;;;18.87;;
20861;SDS011;10591;52.532;13.348;2023-06-24T01:58:18;22.30;;;19.85;;
20861;SDS011;10591;52.532;13.348;2023-06-24T02:00:51;25.40;;;21.30;;
20861;SDS011;10591;52.532;13.348;2023-06-24T02:03:23;22.58;;;20.17;;
20861;SDS011;10591;52.532;13.348;2023-06-24T02:05:56;23.77;;;18.57;;
20861;SDS011;10591;52.532;13.348;2023-06-24T02:08:29;20.82;;;18.60;;
20861;SDS011;10591;52.532;13.348;2023-06-24T02:11:03;20.27;;;18.27;;
20861;SDS011;10591;52.532;13.348;2023-06-24T02:13:38;20.60;;;18.48;;
20861;SDS011;10591;52.532;13.348;2023-06-24T02:16:10;22.85;;;18.45;;
20861;SDS011;10591;52.532;13.348;2023-06-24T02:18:42;20.55;;;18.42;;
20861;SDS011;10591;52.532;13.348;2023-06-24T02:21:17;20.80;;;18.42;;
20861;SDS011;10591;52.532;13.348;2023-06-24T02:23:49;19.80;;;17.60;;
20861;SDS011;10591;52.532;13.348;2023-06-24T02:26:20;21.12;;;18.07;;
20861;SDS011;10591;52.532;13.348;2023-06-24T02:28:54;19.62;;;17.50;;
20861;SDS011;10591;52.532;13.348;2023-06-24T02:31:27;19.40;;;16.50;;
20861;SDS011;10591;52.532;13.348;2023-06-24T02:33:57;21.35;;;16.87;;
20861;SDS011;10591;52.532;13.348;2023-06-24T02:36:28;18.98;;;16.82;;
20861;SDS011;10591;52.532;13.348;2023-06-24T02:38:59;21.37;;;17.37;;
20861;SDS011;10591;52.532;13.348;2023-06-24T02:41:30;20.23;;;17.35;;
20861;SDS011;10591;52.532;13.348;2023-06-24T02:44:01;17.73;;;15.90;;
20861;SDS011;10591;52.532;13.348;2023-06-24T02:46:32;18.42;;;16.27;;
20861;SDS011;10591;52.532;13.348;2023-06-24T02:49:05;18.65;;;16.65;;
20861;SDS011;10591;52.532;13.348;2023-06-24T02:51:38;18.85;;;16.48;;
20861;SDS011;10591;52.532;13.348;2023-06-24T02:54:12;21.05;;;17.05;;
20861;SDS011;10591;52.532;13.348;2023-06-24T02:56:44;17.95;;;16.05;;
20861;SDS011;10591;52.532;13.348;2023-06-24T02:59:17;20.52;;;16.60;;
20861;SDS011;10591;52.532;13.348;2023-06-24T03:01:49;18.07;;;16.25;;
20861;SDS011;10591;52.532;13.348;2023-06-24T03:04:21;19.65;;;16.85;;
20861;SDS011;10591;52.532;13.348;2023-06-24T03:06:53;19.65;;;15.85;;
20861;SDS011;10591;52.532;13.348;2023-06-24T03:09:26;18.25;;;15.28;;
20861;SDS011;10591;52.532;13.348;2023-06-24T03:11:58;18.25;;;16.05;;
20861;SDS011;10591;52.532;13.348;2023-06-24T03:14:28;17.15;;;15.35;;
20861;SDS011;10591;52.532;13.348;2023-06-24T03:16:59;18.07;;;16.17;;
20861;SDS011;10591;52.532;13.348;2023-06-24T03:19:31;17.67;;;15.78;;
20861;SDS011;10591;52.532;13.348;2023-06-24T03:22:02;17.45;;;15.70;;
20861;SDS011;10591;52.532;13.348;2023-06-24T03:24:35;20.02;;;15.83;;
20861;SDS011;10591;52.532;13.348;2023-06-24T03:27:08;17.75;;;15.93;;
20861;SDS011;10591;52.532;13.348;2023-06-24T03:29:41;18.12;;;16.23;;
20861;SDS011;10591;52.532;13.348;2023-06-24T03:32:14;16.07;;;14.47;;
20861;SDS011;10591;52.532;13.348;2023-06-24T03:34:47;18.23;;;14.93;;
20861;SDS011;10591;52.532;13.348;2023-06-24T03:37:19;18.12;;;15.45;;
20861;SDS011;10591;52.532;13.348;2023-06-24T03:39:52;17.40;;;15.20;;
20861;SDS011;10591;52.532;13.348;2023-06-24T03:42:23;15.88;;;14.18;;
20861;SDS011;10591;52.532;13.348;2023-06-24T03:45:00;16.32;;;14.70;;
20861;SDS011;10591;52.532;13.348;2023-06-24T03:47:32;16.35;;;14.33;;
20861;SDS011;10591;52.532;13.348;2023-06-24T03:50:02;15.20;;;13.55;;
20861;SDS011;10591;52.532;13.348;2023-06-24T03:52:36;16.35;;;13.95;;
20861;SDS011;10591;52.532;13.348;2023-06-24T03:55:11;15.80;;;13.83;;
20861;SDS011;10591;52.532;13.348;2023-06-24T03:57:47;17.32;;;13.93;;
20861;SDS011;10591;52.532;13.348;2023-06-24T04:00:17;15.23;;;13.43;;
20861;SDS011;10591;52.532;13.348;2023-06-24T04:02:53;14.93;;;13.38;;
20861;SDS011;10591;52.532;13.348;2023-06-24T04:05:26;15.10;;;13.50;;
20861;SDS011;10591;52.532;13.348;2023-06-24T04:07:57;15.10;;;13.48;;
20861;SDS011;10591;52.532;13.348;2023-06-24T04:10:27;15.10;;;13.60;;
20861;SDS011;10591;52.532;13.348;2023-06-24T04:12:58;15.25;;;13.48;;
20861;SDS011;10591;52.532;13.348;2023-06-24T04:15:30;14.75;;;13.22;;
20861;SDS011;10591;52.532;13.348;2023-06-24T04:18:01;15.63;;;13.90;;
20861;SDS011;10591;52.532;13.348;2023-06-24T04:20:33;15.00;;;13.38;;
20861;SDS011;10591;52.532;13.348;2023-06-24T04:23:06;15.13;;;13.48;;
20861;SDS011;10591;52.532;13.348;2023-06-24T04:25:39;15.48;;;13.15;;
20861;SDS011;10591;52.532;13.348;2023-06-24T04:28:11;14.70;;;13.18;;
20861;SDS011;10591;52.532;13.348;2023-06-24T04:30:42;14.58;;;12.95;;
20861;SDS011;10591;52.532;13.348;2023-06-24T04:33:18;15.85;;;13.15;;
20861;SDS011;10591;52.532;13.348;2023-06-24T04:35:48;14.07;;;12.50;;
20861;SDS011;10591;52.532;13.348;2023-06-24T04:38:22;16.67;;;12.80;;
20861;SDS011;10591;52.532;13.348;2023-06-24T04:40:59;13.30;;;12.03;;
20861;SDS011;10591;52.532;13.348;2023-06-24T04:43:27;12.73;;;11.43;;
20861;SDS011;10591;52.532;13.348;2023-06-24T04:45:59;13.48;;;12.20;;
20861;SDS011;10591;52.532;13.348;2023-06-24T04:48:30;13.05;;;11.75;;
20861;SDS011;10591;52.532;13.348;2023-06-24T04:51:00;13.43;;;11.70;;
20861;SDS011;10591;52.532;13.348;2023-06-24T04:53:32;12.73;;;11.38;;
20861;SDS011;10591;52.532;13.348;2023-06-24T04:56:03;13.70;;;11.35;;
20861;SDS011;10591;52.532;13.348;2023-06-24T04:58:35;11.95;;;10.65;;
20861;SDS011;10591;52.532;13.348;2023-06-24T05:01:06;11.93;;;10.75;;
20861;SDS011;10591;52.532;13.348;2023-06-24T05:03:37;12.43;;;10.82;;
20861;SDS011;10591;52.532;13.348;2023-06-24T05:06:08;11.73;;;10.53;;
20861;SDS011;10591;52.532;13.348;2023-06-24T05:08:40;15.05;;;10.85;;
20861;SDS011;10591;52.532;13.348;2023-06-24T05:11:15;12.30;;;10.03;;
20861;SDS011;10591;52.532;13.348;2023-06-24T05:13:46;12.78;;;10.65;;
20861;SDS011;10591;52.532;13.348;2023-06-24T05:16:17;12.13;;;10.98;;
20861;SDS011;10591;52.532;13.348;2023-06-24T05:18:48;10.72;;;9.73;;
20861;SDS011;10591;52.532;13.348;2023-06-24T05:21:19;10.10;;;9.10;;
20861;SDS011;10591;52.532;13.348;2023-06-24T05:23:49;10.32;;;9.23;;
20861;SDS011;10591;52.532;13.348;2023-06-24T05:26:24;10.50;;;9.40;;
20861;SDS011;10591;52.532;13.348;2023-06-24T05:28:57;9.38;;;8.55;;
20861;SDS011;10591;52.532;13.348;2023-06-24T05:31:30;10.50;;;8.78;;
20861;SDS011;10591;52.532;13.348;2023-06-24T05:34:00;9.58;;;8.68;;
20861;SDS011;10591;52.532;13.348;2023-06-24T05:36:33;9.43;;;8.63;;
20861;SDS011;10591;52.532;13.348;2023-06-24T05:39:06;9.05;;;8.15;;
20861;SDS011;10591;52.532;13.348;2023-06-24T05:41:37;9.10;;;8.30;;
20861;SDS011;10591;52.532;13.348;2023-06-24T05:44:11;9.45;;;8.48;;
20861;SDS011;10591;52.532;13.348;2023-06-24T05:46:45;9.33;;;8.43;;
20861;SDS011;10591;52.532;13.348;2023-06-24T05:49:17;8.90;;;8.00;;
20861;SDS011;10591;52.532;13.348;2023-06-24T05:51:53;9.50;;;8.58;;
20861;SDS011;10591;52.532;13.348;2023-06-24T05:54:20;9.63;;;8.73;;
20861;SDS011;10591;52.532;13.348;2023-06-24T05:56:51;8.93;;;8.03;;
20861;SDS011;10591;52.532;13.348;2023-06-24T05:59:22;8.68;;;7.97;;
20861;SDS011;10591;52.532;13.348;2023-06-24T06:01:58;8.95;;;8.15;;
20861;SDS011;10591;52.532;13.348;2023-06-24T06:04:30;8.70;;;7.90;;
20861;SDS011;10591;52.532;13.348;2023-06-24T06:07:01;7.67;;;6.83;;
20861;SDS011;10591;52.532;13.348;2023-06-24T06:09:33;7.92;;;7.12;;
20861;SDS011;10591;52.532;13.348;2023-06-24T06:12:04;8.10;;;7.40;;
20861;SDS011;10591;52.532;13.348;2023-06-24T06:14:38;7.95;;;7.25;;
20861;SDS011;10591;52.532;13.348;2023-06-24T06:17:09;8.35;;;7.62;;
20861;SDS011;10591;52.532;13.348;2023-06-24T06:19:41;8.55;;;7.83;;
20861;SDS011;10591;52.532;13.348;2023-06-24T06:22:14;7.03;;;6.42;;
20861;SDS011;10591;52.532;13.348;2023-06-24T06:24:48;8.20;;;7.40;;
20861;SDS011;10591;52.532;13.348;2023-06-24T06:27:18;6.70;;;6.10;;
20861;SDS011;10591;52.532;13.348;2023-06-24T06:29:49;7.45;;;6.85;;
20861;SDS011;10591;52.532;13.348;2023-06-24T06:32:19;7.72;;;7.12;;
20861;SDS011;10591;52.532;13.348;2023-06-24T06:34:51;8.03;;;7.10;;
20861;SDS011;10591;52.532;13.348;2023-06-24T06:37:22;8.45;;;7.75;;
20861;SDS011;10591;52.532;13.348;2023-06-24T06:39:53;7.47;;;6.80;;
20861;SDS011;10591;52.532;13.348;2023-06-24T06:42:23;7.90;;;7.20;;
20861;SDS011;10591;52.532;13.348;2023-06-24T06:44:55;8.20;;;7.37;;
20861;SDS011;10591;52.532;13.348;2023-06-24T06:47:26;8.98;;;8.08;;
20861;SDS011;10591;52.532;13.348;2023-06-24T06:49:57;7.67;;;6.97;;
20861;SDS011;10591;52.532;13.348;2023-06-24T06:52:30;7.17;;;6.45;;
20861;SDS011;10591;52.532;13.348;2023-06-24T06:55:01;7.50;;;6.80;;
20861;SDS011;10591;52.532;13.348;2023-06-24T06:57:31;7.37;;;6.83;;
20861;SDS011;10591;52.532;13.348;2023-06-24T07:00:03;7.15;;;6.55;;
20861;SDS011;10591;52.532;13.348;2023-06-24T07:02:34;7.20;;;6.53;;
20861;SDS011;10591;52.532;13.348;2023-06-24T07:05:06;7.22;;;6.55;;
20861;SDS011;10591;52.532;13.348;2023-06-24T07:07:40;6.75;;;6.22;;
20861;SDS011;10591;52.532;13.348;2023-06-24T07:10:12;8.45;;;6.72;;
20861;SDS011;10591;52.532;13.348;2023-06-24T07:12:46;7.08;;;6.47;;
20861;SDS011;10591;52.532;13.348;2023-06-24T07:15:17;7.85;;;6.62;;
20861;SDS011;10591;52.532;13.348;2023-06-24T07:17:51;7.83;;;7.12;;
20861;SDS011;10591;52.532;13.348;2023-06-24T07:20:22;7.95;;;7.15;;
20861;SDS011;10591;52.532;13.348;2023-06-24T07:22:55;7.50;;;6.80;;
20861;SDS011;10591;52.532;13.348;2023-06-24T07:25:28;8.73;;;6.62;;
20861;SDS011;10591;52.532;13.348;2023-06-24T07:27:58;7.90;;;7.17;;
20861;SDS011;10591;52.532;13.348;2023-06-24T07:30:29;7.62;;;6.83;;
20861;SDS011;10591;52.532;13.348;2023-06-24T07:33:02;10.55;;;8.10;;
20861;SDS011;10591;52.532;13.348;2023-06-24T07:35:34;8.30;;;6.78;;
20861;SDS011;10591;52.532;13.348;2023-06-24T07:38:05;7.72;;;6.90;;
20861;SDS011;10591;52.532;13.348;2023-06-24T07:40:36;7.20;;;6.50;;
20861;SDS011;10591;52.532;13.348;2023-06-24T07:43:07;6.67;;;6.08;;
20861;SDS011;10591;52.532;13.348;2023-06-24T07:45:38;8.75;;;6.90;;
20861;SDS011;10591;52.532;13.348;2023-06-24T07:48:10;7.25;;;6.50;;
20861;SDS011;10591;52.532;13.348;2023-06-24T07:50:41;8.38;;;6.40;;
20861;SDS011;10591;52.532;13.348;2023-06-24T07:53:12;7.25;;;6.62;;
20861;SDS011;10591;52.532;13.348;2023-06-24T07:55:43;8.40;;;6.78;;
20861;SDS011;10591;52.532;13.348;2023-06-24T07:58:14;6.70;;;6.10;;
20861;SDS011;10591;52.532;13.348;2023-06-24T08:00:46;6.80;;;6.10;;
20861;SDS011;10591;52.532;13.348;2023-06-24T08:03:17;7.12;;;6.42;;
20861;SDS011;10591;52.532;13.348;2023-06-24T08:05:49;6.92;;;6.33;;
20861;SDS011;10591;52.532;13.348;2023-06-24T08:08:20;6.97;;;6.28;;
20861;SDS011;10591;52.532;13.348;2023-06-24T08:10:50;8.35;;;6.83;;
20861;SDS011;10591;52.532;13.348;2023-06-24T08:13:21;7.20;;;6.60;;
20861;SDS011;10591;52.532;13.348;2023-06-24T08:15:51;6.97;;;6.10;;
20861;SDS011;10591;52.532;13.348;2023-06-24T08:18:22;7.33;;;6.62;;
20861;SDS011;10591;52.532;13.348;2023-06-24T08:20:53;7.15;;;6.37;;
20861;SDS011;10591;52.532;13.348;2023-06-24T08:23:24;7.20;;;6.50;;
20861;SDS011;10591;52.532;13.348;2023-06-24T08:25:57;7.58;;;6.20;;
20861;SDS011;10591;52.532;13.348;2023-06-24T08:28:28;7.65;;;6.37;;
20861;SDS011;10591;52.532;13.348;2023-06-24T08:30:59;6.85;;;6.20;;
20861;SDS011;10591;52.532;13.348;2023-06-24T08:33:31;8.70;;;6.58;;
20861;SDS011;10591;52.532;13.348;2023-06-24T08:36:04;6.58;;;5.97;;
20861;SDS011;10591;52.532;13.348;2023-06-24T08:38:35;8.43;;;6.47;;
20861;SDS011;10591;52.532;13.348;2023-06-24T08:41:06;6.60;;;5.87;;
20861;SDS011;10591;52.532;13.348;2023-06-24T08:43:38;6.83;;;6.22;;
20861;SDS011;10591;52.532;13.348;2023-06-24T08:46:09;9.10;;;8.20;;
20861;SDS011;10591;52.532;13.348;2023-06-24T08:48:42;6.87;;;6.28;;
20861;SDS011;10591;52.532;13.348;2023-06-24T08:51:15;6.75;;;6.17;;
20861;SDS011;10591;52.532;13.348;2023-06-24T08:53:49;7.45;;;6.50;;
20861;SDS011;10591;52.532;13.348;2023-06-24T08:56:21;13.13;;;6.78;;
20861;SDS011;10591;52.532;13.348;2023-06-24T08:58:52;7.45;;;6.65;;
20861;SDS011;10591;52.532;13.348;2023-06-24T09:01:24;6.65;;;6.05;;
20861;SDS011;10591;52.532;13.348;2023-06-24T09:03:58;6.70;;;6.03;;
20861;SDS011;10591;52.532;13.348;2023-06-24T09:06:29;7.00;;;6.40;;
20861;SDS011;10591;52.532;13.348;2023-06-24T09:09:04;6.10;;;5.50;;
20861;SDS011;10591;52.532;13.348;2023-06-24T09:11:37;8.48;;;6.47;;
20861;SDS011;10591;52.532;13.348;2023-06-24T09:14:08;7.83;;;6.40;;
20861;SDS011;10591;52.532;13.348;2023-06-24T09:16:42;6.90;;;5.83;;
20861;SDS011;10591;52.532;13.348;2023-06-24T09:19:29;6.35;;;5.75;;
20861;SDS011;10591;52.532;13.348;2023-06-24T09:22:03;6.72;;;5.80;;
20861;SDS011;10591;52.532;13.348;2023-06-24T09:24:36;7.72;;;5.45;;
20861;SDS011;10591;52.532;13.348;2023-06-24T09:27:09;6.12;;;5.53;;
20861;SDS011;10591;52.532;13.348;2023-06-24T09:29:43;6.58;;;5.97;;
20861;SDS011;10591;52.532;13.348;2023-06-24T09:32:16;6.10;;;5.37;;
20861;SDS011;10591;52.532;13.348;2023-06-24T09:34:47;7.60;;;5.53;;
20861;SDS011;10591;52.532;13.348;2023-06-24T09:37:22;7.05;;;5.00;;
20861;SDS011;10591;52.532;13.348;2023-06-24T09:39:56;5.22;;;4.72;;
20861;SDS011;10591;52.532;13.348;2023-06-24T09:42:27;5.95;;;4.97;;
20861;SDS011;10591;52.532;13.348;2023-06-24T09:45:04;5.55;;;4.95;;
20861;SDS011;10591;52.532;13.348;2023-06-24T09:47:38;6.40;;;5.10;;
20861;SDS011;10591;52.532;13.348;2023-06-24T09:50:10;5.62;;;4.62;;
20861;SDS011;10591;52.532;13.348;2023-06-24T09:52:43;6.10;;;5.25;;
20861;SDS011;10591;52.532;13.348;2023-06-24T09:55:15;4.90;;;4.37;;
20861;SDS011;10591;52.532;13.348;2023-06-24T09:57:50;4.25;;;3.95;;
20861;SDS011;10591;52.532;13.348;2023-06-24T10:00:24;5.47;;;4.20;;
20861;SDS011;10591;52.532;13.348;2023-06-24T10:02:57;5.92;;;4.75;;
20861;SDS011;10591;52.532;13.348;2023-06-24T10:05:32;5.28;;;4.75;;
20861;SDS011;10591;52.532;13.348;2023-06-24T10:08:04;5.15;;;4.67;;
20861;SDS011;10591;52.532;13.348;2023-06-24T10:10:36;8.20;;;4.87;;
20861;SDS011;10591;52.532;13.348;2023-06-24T10:13:09;4.75;;;4.35;;
20861;SDS011;10591;52.532;13.348;2023-06-24T10:15:40;4.92;;;4.40;;
20861;SDS011;10591;52.532;13.348;2023-06-24T10:21:11;5.55;;;4.65;;
20861;SDS011;10591;52.532;13.348;2023-06-24T10:23:52;6.58;;;4.53;;
20861;SDS011;10591;52.532;13.348;2023-06-24T10:26:30;4.75;;;4.33;;
20861;SDS011;10591;52.532;13.348;2023-06-24T10:37:07;5.80;;;5.10;;
20861;SDS011;10591;52.532;13.348;2023-06-24T10:40:00;5.83;;;5.15;;
20861;SDS011;10591;52.532;13.348;2023-06-24T10:42:32;5.72;;;4.97;;
20861;SDS011;10591;52.532;13.348;2023-06-24T10:45:16;5.90;;;5.40;;
20861;SDS011;10591;52.532;13.348;2023-06-24T10:47:50;5.47;;;4.60;;
20861;SDS011;10591;52.532;13.348;2023-06-24T10:50:29;5.53;;;4.95;;
20861;SDS011;10591;52.532;13.348;2023-06-24T10:53:00;6.12;;;5.62;;
20861;SDS011;10591;52.532;13.348;2023-06-24T10:55:32;5.62;;;5.10;;
20861;SDS011;10591;52.532;13.348;2023-06-24T10:58:13;6.55;;;5.10;;
20861;SDS011;10591;52.532;13.348;2023-06-24T11:00:43;7.55;;;5.12;;
20861;SDS011;10591;52.532;13.348;2023-06-24T11:03:16;5.60;;;5.10;;
20861;SDS011;10591;52.532;13.348;2023-06-24T11:05:51;6.50;;;5.03;;
20861;SDS011;10591;52.532;13.348;2023-06-24T11:08:21;5.75;;;5.25;;
20861;SDS011;10591;52.532;13.348;2023-06-24T11:10:53;6.67;;;5.40;;
20861;SDS011;10591;52.532;13.348;2023-06-24T11:13:24;5.55;;;5.08;;
20861;SDS011;10591;52.532;13.348;2023-06-24T11:15:59;5.47;;;5.05;;
20861;SDS011;10591;52.532;13.348;2023-06-24T11:18:36;9.25;;;5.33;;
20861;SDS011;10591;52.532;13.348;2023-06-24T11:21:04;6.05;;;5.22;;
20861;SDS011;10591;52.532;13.348;2023-06-24T11:23:39;6.45;;;5.08;;
20861;SDS011;10591;52.532;13.348;2023-06-24T11:26:14;5.67;;;5.17;;
20861;SDS011;10591;52.532;13.348;2023-06-24T11:28:47;5.58;;;5.08;;
20861;SDS011;10591;52.532;13.348;2023-06-24T11:31:18;5.87;;;5.37;;
20861;SDS011;10591;52.532;13.348;2023-06-24T11:33:51;4.83;;;4.42;;
20861;SDS011;10591;52.532;13.348;2023-06-24T11:36:22;6.58;;;5.45;;
20861;SDS011;10591;52.532;13.348;2023-06-24T11:38:53;6.72;;;5.60;;
20861;SDS011;10591;52.532;13.348;2023-06-24T11:41:27;6.40;;;4.92;;
20861;SDS011;10591;52.532;13.348;2023-06-24T11:43:57;5.85;;;4.97;;
20861;SDS011;10591;52.532;13.348;2023-06-24T11:46:30;5.65;;;5.15;;
20861;SDS011;10591;52.532;13.348;2023-06-24T11:51:39;5.45;;;5.05;;
20861;SDS011;10591;52.532;13.348;2023-06-24T11:54:19;6.22;;;4.97;;
20861;SDS011;10591;52.532;13.348;2023-06-24T11:56:52;5.78;;;5.15;;
20861;SDS011;10591;52.532;13.348;2023-06-24T11:59:23;5.58;;;4.67;;
20861;SDS011;10591;52.532;13.348;2023-06-24T12:01:56;5.50;;;5.00;;
20861;SDS011;10591;52.532;13.348;2023-06-24T12:04:30;5.95;;;5.12;;
20861;SDS011;10591;52.532;13.348;2023-06-24T12:07:03;5.33;;;4.75;;
20861;SDS011;10591;52.532;13.348;2023-06-24T12:09:34;5.50;;;4.65;;
20861;SDS011;10591;52.532;13.348;2023-06-24T12:12:08;5.33;;;4.67;;
20861;SDS011;10591;52.532;13.348;2023-06-24T12:14:40;5.42;;;4.92;;
20861;SDS011;10591;52.532;13.348;2023-06-24T12:17:10;8.75;;;4.75;;
20861;SDS011;10591;52.532;13.348;2023-06-24T12:19:43;13.32;;;7.67;;
20861;SDS011;10591;52.532;13.348;2023-06-24T12:22:14;9.00;;;5.50;;
20861;SDS011;10591;52.532;13.348;2023-06-24T12:24:45;7.47;;;5.65;;
20861;SDS011;10591;52.532;13.348;2023-06-24T12:27:15;5.33;;;4.83;;
20861;SDS011;10591;52.532;13.348;2023-06-24T12:29:46;6.58;;;4.85;;
20861;SDS011;10591;52.532;13.348;2023-06-24T12:32:22;5.60;;;5.10;;
20861;SDS011;10591;52.532;13.348;2023-06-24T12:34:52;5.20;;;4.70;;
20861;SDS011;10591;52.532;13.348;2023-06-24T12:37:23;5.25;;;4.62;;
20861;SDS011;10591;52.532;13.348;2023-06-24T12:39:54;5.85;;;4.80;;
20861;SDS011;10591;52.532;13.348;2023-06-24T12:42:25;7.90;;;5.10;;
20861;SDS011;10591;52.532;13.348;2023-06-24T12:44:56;6.10;;;5.35;;
20861;SDS011;10591;52.532;13.348;2023-06-24T12:47:27;6.90;;;5.17;;
20861;SDS011;10591;52.532;13.348;2023-06-24T12:49:58;7.50;;;5.15;;
20861;SDS011;10591;52.532;13.348;2023-06-24T12:52:29;5.53;;;5.03;;
20861;SDS011;10591;52.532;13.348;2023-06-24T12:54:59;5.72;;;5.22;;
20861;SDS011;10591;52.532;13.348;2023-06-24T12:57:32;17.67;;;10.55;;
20861;SDS011;10591;52.532;13.348;2023-06-24T13:00:03;9.60;;;7.55;;
20861;SDS011;10591;52.532;13.348;2023-06-24T13:02:37;12.28;;;10.43;;
20861;SDS011;10591;52.532;13.348;2023-06-24T13:05:08;7.08;;;5.28;;
20861;SDS011;10591;52.532;13.348;2023-06-24T13:07:39;6.08;;;5.22;;
20861;SDS011;10591;52.532;13.348;2023-06-24T13:10:12;5.55;;;5.05;;
20861;SDS011;10591;52.532;13.348;2023-06-24T13:12:43;5.95;;;5.35;;
20861;SDS011;10591;52.532;13.348;2023-06-24T13:15:17;6.90;;;6.20;;
20861;SDS011;10591;52.532;13.348;2023-06-24T13:17:49;6.60;;;5.33;;
20861;SDS011;10591;52.532;13.348;2023-06-24T13:20:21;8.03;;;5.72;;
20861;SDS011;10591;52.532;13.348;2023-06-24T13:22:51;6.08;;;5.58;;
20861;SDS011;10591;52.532;13.348;2023-06-24T13:25:23;5.87;;;5.30;;
20861;SDS011;10591;52.532;13.348;2023-06-24T13:27:54;7.83;;;5.08;;
20861;SDS011;10591;52.532;13.348;2023-06-24T13:30:26;5.87;;;5.33;;
20861;SDS011;10591;52.532;13.348;2023-06-24T13:32:58;5.42;;;4.92;;
20861;SDS011;10591;52.532;13.348;2023-06-24T13:35:28;6.12;;;5.53;;
20861;SDS011;10591;52.532;13.348;2023-06-24T13:37:59;9.95;;;5.87;;
20861;SDS011;10591;52.532;13.348;2023-06-24T13:40:30;18.02;;;11.33;;
20861;SDS011;10591;52.532;13.348;2023-06-24T13:43:00;11.03;;;8.58;;
20861;SDS011;10591;52.532;13.348;2023-06-24T13:45:31;9.85;;;7.00;;
20861;SDS011;10591;52.532;13.348;2023-06-24T13:48:02;7.55;;;6.22;;
20861;SDS011;10591;52.532;13.348;2023-06-24T13:50:33;6.30;;;5.70;;
20861;SDS011;10591;52.532;13.348;2023-06-24T13:53:04;6.83;;;5.28;;
20861;SDS011;10591;52.532;13.348;2023-06-24T13:55:36;5.62;;;5.12;;
20861;SDS011;10591;52.532;13.348;2023-06-24T13:58:06;6.30;;;5.70;;
20861;SDS011;10591;52.532;13.348;2023-06-24T14:00:37;8.50;;;6.15;;
20861;SDS011;10591;52.532;13.348;2023-06-24T14:03:10;6.87;;;5.97;;
20861;SDS011;10591;52.532;13.348;2023-06-24T14:05:41;8.63;;;5.92;;
20861;SDS011;10591;52.532;13.348;2023-06-24T14:08:11;6.58;;;5.87;;
20861;SDS011;10591;52.532;13.348;2023-06-24T14:10:42;6.65;;;5.70;;
20861;SDS011;10591;52.532;13.348;2023-06-24T14:13:13;6.22;;;5.55;;
20861;SDS011;10591;52.532;13.348;2023-06-24T14:15:43;6.67;;;5.50;;
20861;SDS011;10591;52.532;13.348;2023-06-24T14:18:16;7.65;;;5.87;;
20861;SDS011;10591;52.532;13.348;2023-06-24T14:20:48;6.03;;;5.35;;
20861;SDS011;10591;52.532;13.348;2023-06-24T14:23:19;6.03;;;5.53;;
20861;SDS011;10591;52.532;13.348;2023-06-24T14:25:49;6.45;;;5.40;;
20861;SDS011;10591;52.532;13.348;2023-06-24T14:28:20;5.40;;;4.70;;
20861;SDS011;10591;52.532;13.348;2023-06-24T14:30:51;5.33;;;4.83;;
20861;SDS011;10591;52.532;13.348;2023-06-24T14:33:22;6.42;;;4.90;;
20861;SDS011;10591;52.532;13.348;2023-06-24T14:35:53;7.70;;;5.15;;
20861;SDS011;10591;52.532;13.348;2023-06-24T14:38:24;7.28;;;5.60;;
20861;SDS011;10591;52.532;13.348;2023-06-24T14:40:56;6.28;;;5.22;;
20861;SDS011;10591;52.532;13.348;2023-06-24T14:43:27;5.78;;;5.00;;
20861;SDS011;10591;52.532;13.348;2023-06-24T14:45:59;6.08;;;5.33;;
20861;SDS011;10591;52.532;13.348;2023-06-24T14:48:32;6.58;;;5.00;;
20861;SDS011;10591;52.532;13.348;2023-06-24T14:51:03;5.25;;;4.80;;
20861;SDS011;10591;52.532;13.348;2023-06-24T14:53:37;5.20;;;4.70;;
20861;SDS011;10591;52.532;13.348;2023-06-24T14:56:07;5.60;;;5.10;;
20861;SDS011;10591;52.532;13.348;2023-06-24T14:58:39;4.90;;;4.50;;
20861;SDS011;10591;52.532;13.348;2023-06-24T15:01:10;5.70;;;5.20;;
20861;SDS011;10591;52.532;13.348;2023-06-24T15:03:41;5.85;;;5.10;;
20861;SDS011;10591;52.532;13.348;2023-06-24T15:06:14;6.65;;;5.75;;
20861;SDS011;10591;52.532;13.348;2023-06-24T15:08:44;5.95;;;5.37;;
20861;SDS011;10591;52.532;13.348;2023-06-24T15:11:15;5.97;;;5.40;;
20861;SDS011;10591;52.532;13.348;2023-06-24T15:13:48;6.20;;;5.53;;
20861;SDS011;10591;52.532;13.348;2023-06-24T15:16:21;5.60;;;5.03;;
20861;SDS011;10591;52.532;13.348;2023-06-24T15:18:52;6.17;;;5.60;;
20861;SDS011;10591;52.532;13.348;2023-06-24T15:21:23;6.30;;;5.70;;